Darstellungsparameter: Aktuell verwendete Einstellungen:
Skalierung der Graphiken ... ?
xyx+y,   Skalierungsfaktor:      Skalierung: Modus: x, Faktor: 1
Darstellungszeitraum ... ?
Vom - - bis: - -   Zeitraum: 04.03.2011 - 04.03.2011
Min/Max/Avg-Anzeige ... ?
Zeige MMA aktuell
Zeige MMA Monat
Zeige MMA alles
Zeige --A aktuell
Zeige --A Monat
Zeige --A alles
Keine MMA-Anzeige
MMA:
Minimum Maximum Average (ber die Originaldaten)
MMA-Basis: 14.04.2020 - 16.05.2020
Quicknavigation für Darstellung... ?
Tage:      1T, 2T, 3T, 5T -1T -2T -3T -5T +1T +2T +3T +5T
Wochen: 1W, 2W, 3W -1W -2W -3W +1W +2W +3W
Monate: 1M, 3M, 6M -1M -3M -6M +1M +3M +6M
Jahre:    1J, 3J, 5J, 10J -1J -3J -5J -10J +1J +3J +5J +10J
Nutze für die Darstellung ... ?
Originaldaten oder Mittelwerte auf ...
Stundenbasis Tagesbasis Wochenbasis
Monatsbasis Jahresbasis      Datenbasis: Original-Daten
Darstellen als:
Statistik (Auto) Statistik J:M      Darstellung:
Zur Graphik,    zurück zur Übersicht aller Sensoren.
 
Tabellarische Datenbersicht: ?
 
Sensor: Nr:Datum:Temp:Abs-Feuchte:Windchill:Wind:
Aussen-T/F 1 04-03-2011 00:04:03 -1.5 C 2.97 g/m*3 -1.5 C 0 km/h
2 04-03-2011 00:16:03 -1.5 C 2.97 g/m*3 -1.5 C 0 km/h
3 04-03-2011 00:28:03 -1.6 C 2.95 g/m*3 -1.6 C 0 km/h
4 04-03-2011 00:40:04 -1.8 C 2.95 g/m*3 -1.8 C 0 km/h
5 04-03-2011 00:52:04 -1.7 C 2.97 g/m*3 -1.7 C 0 km/h
6 04-03-2011 01:04:04 -1.9 C 2.97 g/m*3 -1.9 C 0 km/h
7 04-03-2011 01:16:04 -1.7 C 3.01 g/m*3 -1.7 C 0 km/h
8 04-03-2011 01:28:04 -1.9 C 2.97 g/m*3 -1.9 C 0 km/h
9 04-03-2011 01:40:04 -1.9 C 2.97 g/m*3 -1.9 C 0 km/h
10 04-03-2011 01:52:04 -2 C 2.95 g/m*3 -2 C 0 km/h
11 04-03-2011 02:04:04 -2.2 C 2.91 g/m*3 -2.2 C 0 km/h
12 04-03-2011 02:16:04 -2.1 C 2.93 g/m*3 -2.1 C 0 km/h
13 04-03-2011 02:28:04 -2.3 C 2.89 g/m*3 -2.3 C 0 km/h
14 04-03-2011 02:40:04 -2.4 C 2.87 g/m*3 -2.4 C 0 km/h
15 04-03-2011 02:52:04 -2.2 C 2.95 g/m*3 -2.2 C 0 km/h
16 04-03-2011 03:04:04 -2.5 C 2.85 g/m*3 -2.5 C 0 km/h
17 04-03-2011 03:16:04 -2.7 C 2.85 g/m*3 -2.7 C 0 km/h
18 04-03-2011 03:28:04 -3 C 2.83 g/m*3 -3 C 0 km/h
19 04-03-2011 03:40:04 -3.2 C 2.83 g/m*3 -3.2 C 0 km/h
20 04-03-2011 03:52:04 -2.5 C 3.01 g/m*3 -2.5 C 0 km/h
21 04-03-2011 04:04:04 -2.8 C 2.95 g/m*3 -2.8 C 0 km/h
22 04-03-2011 04:16:04 -3.1 C 2.85 g/m*3 -3.1 C 0 km/h
23 04-03-2011 04:28:04 -3.9 C 2.69 g/m*3 -3.9 C 0 km/h
24 04-03-2011 04:40:04 -3.9 C 2.76 g/m*3 -3.9 C 0 km/h
25 04-03-2011 04:52:05 -4 C 2.78 g/m*3 -4 C 0 km/h
Sensor: Nr:Datum:Temp:Abs-Feuchte:Windchill:Wind:
Aussen-T/F 26 04-03-2011 05:04:05 -4.3 C 2.72 g/m*3 -4.3 C 0 km/h
27 04-03-2011 05:16:05 -4.3 C 2.72 g/m*3 -4.3 C 0 km/h
28 04-03-2011 05:28:05 -4.6 C 2.7 g/m*3 -4.6 C 0 km/h
29 04-03-2011 05:40:05 -4.3 C 2.79 g/m*3 -4.3 C 0 km/h
30 04-03-2011 05:52:05 -4.3 C 2.83 g/m*3 -4.3 C 0 km/h
31 04-03-2011 06:04:05 -4.7 C 2.75 g/m*3 -4.7 C 0 km/h
32 04-03-2011 06:16:05 -4.4 C 2.81 g/m*3 -4.4 C 0 km/h
33 04-03-2011 06:28:05 -4.4 C 2.81 g/m*3 -4.4 C 0 km/h
34 04-03-2011 06:40:05 -4.7 C 2.75 g/m*3 -4.7 C 0 km/h
35 04-03-2011 06:52:05 -5 C 2.66 g/m*3 -5 C 0 km/h
36 04-03-2011 07:04:05 -4.9 C 2.68 g/m*3 -4.9 C 0 km/h
37 04-03-2011 07:16:03 -4.9 C 2.71 g/m*3 -4.9 C 0 km/h
38 04-03-2011 07:28:03 -4.7 C 2.75 g/m*3 -4.7 C 0 km/h
39 04-03-2011 07:40:02 -4.6 C 2.77 g/m*3 -4.6 C 0 km/h
40 04-03-2011 07:52:02 -4.4 C 2.81 g/m*3 -4.4 C 0 km/h
41 04-03-2011 08:04:01 -4.5 C 2.79 g/m*3 -4.5 C 0 km/h
42 04-03-2011 08:16:02 -4 C 2.89 g/m*3 -4 C 0 km/h
43 04-03-2011 08:28:02 -4 C 2.93 g/m*3 -4 C 0 km/h
44 04-03-2011 08:40:02 -3.8 C 2.97 g/m*3 -3.8 C 0 km/h
45 04-03-2011 08:52:02 -3.6 C 2.97 g/m*3 -3.6 C 0 km/h
46 04-03-2011 09:04:02 -3.5 C 2.99 g/m*3 -3.5 C 0 km/h
47 04-03-2011 09:16:02 -3.1 C 3.08 g/m*3 -3.1 C 0 km/h
48 04-03-2011 09:28:02 -2.7 C 3.17 g/m*3 -2.7 C 0 km/h
49 04-03-2011 09:40:02 -2.4 C 3.2 g/m*3 -2.4 C 0 km/h
50 04-03-2011 09:52:02 -2.2 C 3.24 g/m*3 -2.2 C 0 km/h
Sensor: Nr:Datum:Temp:Abs-Feuchte:Windchill:Wind:
Aussen-T/F 51 04-03-2011 10:04:02 -1.6 C 3.34 g/m*3 -1.6 C 0 km/h
52 04-03-2011 10:16:02 -0.7 C 3.46 g/m*3 -0.7 C 0 km/h
53 04-03-2011 10:28:02 -0.1 C 3.46 g/m*3 -0.1 C 0 km/h
54 04-03-2011 10:40:03 0.5 C 3.46 g/m*3 0.5 C 0 km/h
55 04-03-2011 10:52:02 1.4 C 3.52 g/m*3 1.4 C 0 km/h
56 04-03-2011 11:04:02 2.9 C 3.48 g/m*3 2.9 C 0 km/h
57 04-03-2011 11:16:02 3 C 3.21 g/m*3 3 C 0 km/h
58 04-03-2011 11:28:02 3.3 C 3.09 g/m*3 3.3 C 0 km/h
59 04-03-2011 11:40:02 4.6 C 3.04 g/m*3 4.6 C 0 km/h
60 04-03-2011 11:52:02 4.2 C 2.9 g/m*3 4.2 C 0 km/h
61 04-03-2011 12:04:01 4.6 C 3.04 g/m*3 4.6 C 0 km/h
62 04-03-2011 12:16:02 5.4 C 2.93 g/m*3 5.4 C 0 km/h
63 04-03-2011 12:28:02 7.3 C 3.08 g/m*3 7.3 C 0 km/h
64 04-03-2011 12:40:02 9.5 C 2.82 g/m*3 9.5 C 0 km/h
65 04-03-2011 12:52:01 10.5 C 2.91 g/m*3 10.5 C 0 km/h
66 04-03-2011 13:04:01 11.6 C 2.7 g/m*3 11.6 C 0 km/h
67 04-03-2011 13:16:01 12 C 2.66 g/m*3 12 C 0 km/h
68 04-03-2011 13:28:01 10.1 C 2.84 g/m*3 10.1 C 0 km/h
69 04-03-2011 13:40:02 9 C 2.73 g/m*3 9 C 0 km/h
70 04-03-2011 13:52:02 8.9 C 2.8 g/m*3 8.9 C 0 km/h
71 04-03-2011 14:04:02 8.6 C 2.84 g/m*3 8.6 C 0 km/h
72 04-03-2011 14:16:01 9.8 C 2.97 g/m*3 9.8 C 0 km/h
73 04-03-2011 14:28:01 9.8 C 2.97 g/m*3 9.8 C 0 km/h
74 04-03-2011 14:40:02 10.1 C 3.03 g/m*3 10.1 C 0 km/h
75 04-03-2011 14:52:02 10 C 2.91 g/m*3 10 C 0 km/h
Sensor: Nr:Datum:Temp:Abs-Feuchte:Windchill:Wind:
Aussen-T/F 76 04-03-2011 15:04:02 10.9 C 2.98 g/m*3 10.9 C 0 km/h
77 04-03-2011 15:16:02 10.7 C 3.04 g/m*3 10.7 C 0 km/h
78 04-03-2011 15:28:02 10.8 C 2.97 g/m*3 10.8 C 0 km/h
79 04-03-2011 15:40:02 13.2 C 2.99 g/m*3 13.2 C 0 km/h
80 04-03-2011 15:52:02 14.2 C 3.05 g/m*3 14.2 C 0 km/h
81 04-03-2011 16:04:01 15.1 C 2.58 g/m*3 15.1 C 0 km/h
82 04-03-2011 16:16:01 16.9 C 2.88 g/m*3 16.9 C 0 km/h
83 04-03-2011 16:28:01 16.6 C 2.83 g/m*3 16.6 C 0 km/h
84 04-03-2011 16:40:02 15.2 C 2.86 g/m*3 15.2 C 0 km/h
85 04-03-2011 16:52:02 14.9 C 3.19 g/m*3 14.9 C 0 km/h
86 04-03-2011 17:04:02 13.5 C 2.92 g/m*3 13.5 C 0 km/h
87 04-03-2011 17:16:02 13.2 C 3.1 g/m*3 13.2 C 0 km/h
88 04-03-2011 17:28:02 11.1 C 3.42 g/m*3 11.1 C 0 km/h
89 04-03-2011 17:40:02 8.9 C 3.5 g/m*3 8.9 C 0 km/h
90 04-03-2011 17:52:02 7.9 C 3.61 g/m*3 7.9 C 0 km/h
91 04-03-2011 18:04:02 6.4 C 3.58 g/m*3 6.4 C 0 km/h
92 04-03-2011 18:16:02 5.5 C 3.65 g/m*3 5.5 C 0 km/h
93 04-03-2011 18:28:02 5.1 C 3.69 g/m*3 5.1 C 0 km/h
94 04-03-2011 18:40:02 4.7 C 3.73 g/m*3 4.7 C 0 km/h
95 04-03-2011 18:52:01 5.2 C 3.65 g/m*3 5.2 C 0 km/h
96 04-03-2011 19:04:02 5 C 3.53 g/m*3 5 C 0 km/h
97 04-03-2011 19:16:01 5 C 3.4 g/m*3 5 C 0 km/h
98 04-03-2011 19:28:01 4.3 C 3.37 g/m*3 4.3 C 0 km/h
99 04-03-2011 19:40:01 4.4 C 3.79 g/m*3 4.4 C 0 km/h
100 04-03-2011 19:52:01 3.6 C 3.71 g/m*3 3.6 C 0 km/h
Sensor: Nr:Datum:Temp:Abs-Feuchte:Windchill:Wind:
Aussen-T/F 101 04-03-2011 20:04:01 3.2 C 3.8 g/m*3 3.2 C 0 km/h
102 04-03-2011 20:16:02 2.8 C 3.81 g/m*3 2.8 C 0 km/h
103 04-03-2011 20:28:02 2.6 C 3.82 g/m*3 2.6 C 0 km/h
104 04-03-2011 20:40:01 2.7 C 3.9 g/m*3 2.7 C 0 km/h
105 04-03-2011 20:52:03 2.3 C 3.8 g/m*3 2.3 C 0 km/h
106 04-03-2011 21:04:02 2.1 C 3.86 g/m*3 2.1 C 0 km/h
107 04-03-2011 21:16:02 1.6 C 3.84 g/m*3 1.6 C 0 km/h
108 04-03-2011 21:28:02 1.9 C 3.92 g/m*3 1.9 C 0 km/h
109 04-03-2011 21:41:03 1.8 C 3.84 g/m*3 1.8 C 0 km/h
110 04-03-2011 21:53:03 1.7 C 3.92 g/m*3 1.7 C 0 km/h
111 04-03-2011 22:05:03 1.7 C 3.92 g/m*3 1.7 C 0 km/h
112 04-03-2011 22:17:03 1.4 C 3.84 g/m*3 1.4 C 0 km/h
113 04-03-2011 22:29:03 0.9 C 3.87 g/m*3 0.9 C 0 km/h
114 04-03-2011 22:41:03 0.7 C 3.86 g/m*3 0.7 C 0 km/h
115 04-03-2011 22:53:03 0.4 C 3.88 g/m*3 0.4 C 0 km/h
116 04-03-2011 23:05:03 -0.3 C 3.7 g/m*3 -0.3 C 0 km/h
117 04-03-2011 23:17:03 0 C 3.88 g/m*3 0 C 0 km/h
118 04-03-2011 23:29:03 0.6 C 4.04 g/m*3 0.6 C 0 km/h
119 04-03-2011 23:41:03 0 C 3.83 g/m*3 0 C 0 km/h
120 04-03-2011 23:53:03 -0.6 C 3.76 g/m*3 -0.6 C 0 km/h

Legende:
   Min
   Max


Maximal/Minimal-Werte vom 14.04.2020 - 16.05.2020

Sensor Min Max Avg
Temp
(Aussen-T/F)
-0.1 °C
15-04-2020  06:55:00
26.2 °C
17-04-2020  18:05:00
11.98 °C

Die Daten stammen von einer Davis Vantage Pro 2 Wetter-Station und werden unter Linux mit der Software wview2wettercgi und aufbereitet. Alle Angaben erfolgen ohne Gewähr für ihre Vollständigkeit oder Richtigkeit.
Kontakt: Rainer Krienke krienke@uni-koblenz.de . Meine Webseiten an der Uni Koblenz oder privat.
Version: $Revision: 0.78 $